Time,TemperatureF,DewpointF,PressureIn,WindDirection,WindDirectionDegrees,WindSpeedMPH,WindSpeedGustMPH,Humidity,HourlyPrecipIn,Conditions,Clouds,dailyrainin,SolarRadiationWatts/m^2,SoftwareType,DateUTC
2013-06-28 00:07:00,61.1,59.4,29.72,SE,125,3.0,9.0,94,0.00,SCT,FEW,0.00,0.0,WeatherDisplay:10.37,2013-06-28 04:07:00,
2013-06-28 00:17:00,61.0,59.3,29.72,SE,127,5.0,12.0,94,0.00,SCT,FEW,0.00,0.0,WeatherDisplay:10.37,2013-06-28 04:17:00,
2013-06-28 00:22:00,61.0,59.3,29.72,SE,124,2.0,9.0,94,0.00,SCT,FEW,0.00,0.0,WeatherDisplay:10.37,2013-06-28 04:22:00,
2013-06-28 00:27:00,61.0,59.3,29.71,ESE,108,5.0,13.0,94,0.00,SCT,FEW,0.00,0.0,WeatherDisplay:10.37,2013-06-28 04:27:00,
2013-06-28 00:32:00,61.0,59.3,29.71,ESE,113,3.0,10.0,94,0.00,SCT,FEW,0.00,0.0,WeatherDisplay:10.37,2013-06-28 04:32:00,
2013-06-28 00:37:00,60.8,59.1,29.71,SE,130,3.0,10.0,94,0.00,SCT,FEW,0.00,0.0,WeatherDisplay:10.37,2013-06-28 04:37:00,
2013-06-28 00:42:00,60.7,59.0,29.71,SE,127,5.0,12.0,94,0.00,SCT,FEW,0.00,0.0,WeatherDisplay:10.37,2013-06-28 04:42:00,
2013-06-28 00:47:00,60.5,58.8,29.71,SE,139,6.0,12.0,94,0.00,SCT,FEW,0.00,0.0,WeatherDisplay:10.37,2013-06-28 04:47:00,
2013-06-28 00:52:00,60.5,59.1,29.70,SE,132,3.0,9.0,95,0.00,SCT,FEW,0.00,0.0,WeatherDisplay:10.37,2013-06-28 04:52:00,
2013-06-28 00:57:00,60.4,58.7,29.70,ESE,118,8.0,15.0,94,0.00,SCT,FEW,0.00,0.0,WeatherDisplay:10.37,2013-06-28 04:57:00,
2013-06-28 01:07:00,60.4,58.7,29.70,SE,133,5.0,12.0,94,0.00,OVC,FEW,0.00,0.0,WeatherDisplay:10.37,2013-06-28 05:07:00,
2013-06-28 01:17:00,60.5,58.5,29.70,SE,131,3.0,10.0,93,0.00,OVC,FEW,0.00,0.0,WeatherDisplay:10.37,2013-06-28 05:17:00,
2013-06-28 01:22:00,60.5,58.4,29.70,SE,138,3.0,9.0,93,0.00,OVC,FEW,0.00,0.0,WeatherDisplay:10.37,2013-06-28 05:22:00,
2013-06-28 01:27:00,60.4,58.4,29.70,SE,130,9.0,14.0,93,0.00,OVC,FEW,0.00,0.0,WeatherDisplay:10.37,2013-06-28 05:27:00,
2013-06-28 01:32:00,60.4,58.4,29.69,SE,125,5.0,14.0,93,0.00,BKN,FEW,0.00,0.0,WeatherDisplay:10.37,2013-06-28 05:32:00,
2013-06-28 01:37:00,60.3,58.6,29.69,SE,128,3.0,12.0,94,0.00,BKN,FEW,0.00,0.0,WeatherDisplay:10.37,2013-06-28 05:37:00,
2013-06-28 01:42:00,60.4,58.6,29.69,SE,138,3.0,7.0,94,0.00,BKN,FEW,0.00,0.0,WeatherDisplay:10.37,2013-06-28 05:42:00,
2013-06-28 01:47:00,60.3,58.3,29.69,SE,139,6.0,14.0,93,0.00,BKN,FEW,0.00,0.0,WeatherDisplay:10.37,2013-06-28 05:47:00,
2013-06-28 01:52:00,60.3,58.3,29.69,SE,140,3.0,14.0,93,0.00,BKN,FEW,0.00,0.0,WeatherDisplay:10.37,2013-06-28 05:52:00,
2013-06-28 01:57:00,60.2,58.2,29.69,SE,137,3.0,14.0,93,0.00,BKN,FEW,0.00,0.0,WeatherDisplay:10.37,2013-06-28 05:57:00,
2013-06-28 02:07:00,60.3,58.3,29.69,ESE,106,6.0,12.0,93,0.00,BKN,FEW,0.00,0.0,WeatherDisplay:10.37,2013-06-28 06:07:00,
2013-06-28 02:17:00,60.1,58.0,29.68,SE,141,5.0,14.0,93,0.00,BKN,FEW,0.00,0.0,WeatherDisplay:10.37,2013-06-28 06:17:00,
2013-06-28 02:22:00,59.9,57.9,29.68,SE,128,7.0,12.0,93,0.00,BKN,FEW,0.00,0.0,WeatherDisplay:10.37,2013-06-28 06:22:00,
2013-06-28 02:27:00,59.8,57.8,29.68,ESE,122,5.0,14.0,93,0.00,BKN,FEW,0.00,0.0,WeatherDisplay:10.37,2013-06-28 06:27:00,
2013-06-28 02:32:00,59.7,57.7,29.67,ESE,119,8.0,12.0,93,0.00,BKN,FEW,0.00,0.0,WeatherDisplay:10.37,2013-06-28 06:32:00,
2013-06-28 02:37:00,59.6,57.5,29.67,ESE,115,7.0,13.0,93,0.00,BKN,FEW,0.00,0.0,WeatherDisplay:10.37,2013-06-28 06:37:00,
2013-06-28 02:42:00,59.6,57.6,29.67,ESE,114,6.0,15.0,93,0.00,BKN,FEW,0.00,0.0,WeatherDisplay:10.37,2013-06-28 06:42:00,
2013-06-28 02:47:00,59.5,57.5,29.66,ESE,115,6.0,17.0,93,0.00,BKN,FEW,0.00,0.0,WeatherDisplay:10.37,2013-06-28 06:47:00,
2013-06-28 02:52:00,59.4,57.4,29.66,SE,128,7.0,17.0,93,0.00,BKN,FEW,0.00,0.0,WeatherDisplay:10.37,2013-06-28 06:52:00,
2013-06-28 02:57:00,59.3,57.3,29.66,SE,136,8.0,13.0,93,0.00,BKN,FEW,0.00,0.0,WeatherDisplay:10.37,2013-06-28 06:57:00,
2013-06-28 03:07:00,59.1,57.1,29.65,ESE,118,3.0,13.0,93,0.00,-RA,FEW,0.00,0.0,WeatherDisplay:10.37,2013-06-28 07:07:00,
2013-06-28 03:17:00,59.0,57.0,29.65,SE,130,3.0,14.0,93,0.00,-RA,FEW,0.00,0.0,WeatherDisplay:10.37,2013-06-28 07:17:00,
2013-06-28 03:22:00,58.9,56.9,29.65,ESE,122,5.0,9.0,93,0.00,-RA,FEW,0.00,0.0,WeatherDisplay:10.37,2013-06-28 07:22:00,
2013-06-28 03:27:00,58.8,56.7,29.65,SE,128,8.0,16.0,93,0.00,-RA,FEW,0.00,0.0,WeatherDisplay:10.37,2013-06-28 07:27:00,
2013-06-28 03:32:00,58.6,56.3,29.65,ESE,116,7.0,18.0,92,0.00,-RA,FEW,0.00,0.0,WeatherDisplay:10.37,2013-06-28 07:32:00,
2013-06-28 03:37:00,58.1,55.8,29.65,ESE,112,7.0,18.0,92,0.00,-RA,FEW,0.00,0.0,WeatherDisplay:10.37,2013-06-28 07:37:00,
2013-06-28 03:42:00,58.0,56.0,29.65,SE,125,7.0,16.0,93,0.00,-RA,FEW,0.00,0.0,WeatherDisplay:10.37,2013-06-28 07:42:00,
2013-06-28 03:47:00,57.9,55.9,29.65,ESE,108,9.0,18.0,93,0.00,-RA,FEW,0.00,0.0,WeatherDisplay:10.37,2013-06-28 07:47:00,
2013-06-28 03:52:00,57.8,56.1,29.65,ESE,118,6.0,15.0,94,0.00,-RA,FEW,0.00,0.0,WeatherDisplay:10.37,2013-06-28 07:52:00,
2013-06-28 03:57:00,57.7,55.7,29.65,SE,128,7.0,13.0,93,0.00,-RA,FEW,0.00,0.0,WeatherDisplay:10.37,2013-06-28 07:57:00,
2013-06-28 04:07:00,57.6,55.9,29.64,ESE,111,5.0,14.0,94,0.00,-RA,FEW,0.00,0.0,WeatherDisplay:10.37,2013-06-28 08:07:00,
2013-06-28 04:17:00,58.0,56.0,29.64,ESE,121,8.0,12.0,93,0.00,-RA,FEW,0.00,0.0,WeatherDisplay:10.37,2013-06-28 08:17:00,
2013-06-28 04:22:00,58.0,56.0,29.64,ESE,113,7.0,12.0,93,0.00,-RA,FEW,0.00,0.0,WeatherDisplay:10.37,2013-06-28 08:22:00,
2013-06-28 04:27:00,57.9,55.9,29.64,ESE,116,6.0,12.0,93,0.00,-RA,FEW,0.00,0.0,WeatherDisplay:10.37,2013-06-28 08:27:00,
2013-06-28 04:32:00,57.5,55.5,29.64,ESE,112,7.0,13.0,93,0.00,-RA,FEW,0.00,0.0,WeatherDisplay:10.37,2013-06-28 08:32:00,
2013-06-28 04:37:00,57.4,55.7,29.64,ESE,118,5.0,12.0,94,0.00,-RA,FEW,0.00,0.0,WeatherDisplay:10.37,2013-06-28 08:37:00,
2013-06-28 04:42:00,57.3,55.6,29.64,ESE,123,8.0,12.0,94,0.00,-RA,FEW,0.00,0.0,WeatherDisplay:10.37,2013-06-28 08:42:00,
2013-06-28 04:47:00,57.1,55.4,29.63,ESE,121,9.0,18.0,94,0.00,-RA,FEW,0.00,0.0,WeatherDisplay:10.37,2013-06-28 08:47:00,
2013-06-28 04:52:00,57.0,55.3,29.63,SE,137,5.0,15.0,94,0.00,-RA,FEW,0.00,0.0,WeatherDisplay:10.37,2013-06-28 08:52:00,
2013-06-28 04:57:00,56.9,55.5,29.63,SE,146,7.0,12.0,95,0.00,-RA,FEW,0.00,0.0,WeatherDisplay:10.37,2013-06-28 08:57:00,
2013-06-28 05:07:00,56.7,55.3,29.62,ESE,122,5.0,12.0,95,0.00,OVC,FEW,0.00,0.0,WeatherDisplay:10.37,2013-06-28 09:07:00,
2013-06-28 05:17:00,56.7,55.2,29.62,ESE,113,9.0,13.0,95,0.00,OVC,FEW,0.00,0.0,WeatherDisplay:10.37,2013-06-28 09:17:00,
2013-06-28 05:22:00,56.6,55.2,29.62,ESE,111,6.0,13.0,95,0.00,OVC,FEW,0.00,0.0,WeatherDisplay:10.37,2013-06-28 09:22:00,
2013-06-28 05:27:00,56.4,55.0,29.62,ESE,113,7.0,14.0,95,0.00,OVC,FEW,0.00,0.0,WeatherDisplay:10.37,2013-06-28 09:27:00,
2013-06-28 05:32:00,56.1,54.7,29.62,ESE,122,12.0,16.0,95,0.01,RA,FEW,0.01,0.0,WeatherDisplay:10.37,2013-06-28 09:32:00,
2013-06-28 05:37:00,55.8,54.1,29.63,ESE,113,7.0,12.0,94,0.02,RA,FEW,0.03,0.0,WeatherDisplay:10.37,2013-06-28 09:37:00,
2013-06-28 05:42:00,55.5,54.1,29.62,ESE,114,7.0,14.0,95,0.02,RA,FEW,0.05,0.0,WeatherDisplay:10.37,2013-06-28 09:42:00,
2013-06-28 05:47:00,55.2,53.8,29.62,ESE,121,7.0,17.0,95,0.02,RA,FEW,0.07,0.0,WeatherDisplay:10.37,2013-06-28 09:47:00,
2013-06-28 05:52:00,55.1,53.7,29.62,SE,124,7.0,12.0,95,0.02,RA,FEW,0.09,5.0,WeatherDisplay:10.37,2013-06-28 09:52:00,
2013-06-28 05:57:00,55.1,53.7,29.62,ESE,122,7.0,13.0,95,0.02,RA,FEW,0.11,5.0,WeatherDisplay:10.37,2013-06-28 09:57:00,
2013-06-28 06:07:00,55.0,53.6,29.61,ESE,110,12.0,18.0,95,0.04,-RA,FEW,0.15,5.0,WeatherDisplay:10.37,2013-06-28 10:07:00,
2013-06-28 06:17:00,54.8,53.7,29.61,ESE,113,10.0,20.0,96,0.02,-RA,FEW,0.17,9.0,WeatherDisplay:10.37,2013-06-28 10:17:00,
2013-06-28 06:22:00,54.9,53.8,29.60,ESE,111,10.0,22.0,96,0.03,-RA,FEW,0.20,14.0,WeatherDisplay:10.37,2013-06-28 10:22:00,
2013-06-28 06:27:00,54.9,53.8,29.59,ESE,113,8.0,15.0,96,0.01,-RA,FEW,0.21,23.0,WeatherDisplay:10.37,2013-06-28 10:27:00,
2013-06-28 06:32:00,54.8,53.7,29.60,ESE,120,9.0,18.0,96,0.00,-RA,FEW,0.21,23.0,WeatherDisplay:10.37,2013-06-28 10:32:00,
2013-06-28 06:37:00,54.9,53.8,29.60,ESE,110,6.0,15.0,96,0.00,-RA,FEW,0.21,26.0,WeatherDisplay:10.37,2013-06-28 10:37:00,
2013-06-28 06:42:00,55.0,53.9,29.60,ESE,108,8.0,16.0,96,0.00,-RA,FEW,0.21,32.0,WeatherDisplay:10.37,2013-06-28 10:42:00,
2013-06-28 06:47:00,55.2,54.1,29.59,ESE,109,7.0,18.0,96,0.00,-RA,FEW,0.21,33.0,WeatherDisplay:10.37,2013-06-28 10:47:00,
2013-06-28 06:52:00,55.3,53.9,29.59,ESE,104,5.0,15.0,95,0.00,-RA,FEW,0.21,32.0,WeatherDisplay:10.37,2013-06-28 10:52:00,
2013-06-28 06:57:00,55.3,53.9,29.59,ESE,104,5.0,15.0,95,0.00,-RA,FEW,0.21,33.0,WeatherDisplay:10.37,2013-06-28 10:57:00,
2013-06-28 07:07:00,55.1,54.0,29.59,ESE,106,3.0,13.0,96,0.00,-RA,FEW,0.21,18.0,WeatherDisplay:10.37,2013-06-28 11:07:00,
2013-06-28 07:17:00,55.0,53.9,29.59,ESE,113,3.0,10.0,96,0.01,-RA,FEW,0.22,26.0,WeatherDisplay:10.37,2013-06-28 11:17:00,
2013-06-28 07:22:00,55.0,53.9,29.59,ESE,107,3.0,7.0,96,0.01,-RA,FEW,0.23,32.0,WeatherDisplay:10.37,2013-06-28 11:22:00,
2013-06-28 07:27:00,54.9,53.8,29.59,ESE,102,8.0,14.0,96,0.00,-RA,FEW,0.23,25.0,WeatherDisplay:10.37,2013-06-28 11:27:00,
2013-06-28 07:32:00,55.0,53.9,29.59,ESE,109,6.0,14.0,96,0.00,-RA,FEW,0.23,21.0,WeatherDisplay:10.37,2013-06-28 11:32:00,
2013-06-28 07:37:00,54.9,53.8,29.58,ESE,112,5.0,12.0,96,0.01,-RA,FEW,0.24,19.0,WeatherDisplay:10.37,2013-06-28 11:37:00,
2013-06-28 07:42:00,54.9,53.8,29.58,ESE,112,5.0,10.0,96,0.01,-RA,FEW,0.25,23.0,WeatherDisplay:10.37,2013-06-28 11:42:00,
2013-06-28 07:47:00,54.9,53.8,29.58,ESE,104,5.0,12.0,96,0.01,-RA,FEW,0.26,21.0,WeatherDisplay:10.37,2013-06-28 11:47:00,
2013-06-28 07:52:00,54.9,53.8,29.57,East,101,5.0,7.0,96,0.00,-RA,FEW,0.26,26.0,WeatherDisplay:10.37,2013-06-28 11:52:00,
2013-06-28 07:57:00,54.9,54.1,29.56,ESE,106,2.0,6.0,97,0.01,-RA,FEW,0.27,28.0,WeatherDisplay:10.37,2013-06-28 11:57:00,
2013-06-28 08:07:00,55.0,54.2,29.56,ESE,111,3.0,10.0,97,0.00,OVC,FEW,0.27,26.0,WeatherDisplay:10.37,2013-06-28 12:07:00,
2013-06-28 08:17:00,55.1,54.0,29.57,East,101,3.0,10.0,96,0.03,RA,FEW,0.30,16.0,WeatherDisplay:10.37,2013-06-28 12:17:00,
2013-06-28 08:22:00,55.2,54.1,29.57,ESE,109,5.0,12.0,96,0.01,RA,FEW,0.31,37.0,WeatherDisplay:10.37,2013-06-28 12:22:00,
2013-06-28 08:27:00,55.3,54.2,29.57,ESE,112,6.0,14.0,96,0.01,RA,FEW,0.32,37.0,WeatherDisplay:10.37,2013-06-28 12:27:00,
2013-06-28 08:32:00,55.3,54.2,29.57,ESE,109,7.0,13.0,96,0.00,RA,FEW,0.32,33.0,WeatherDisplay:10.37,2013-06-28 12:32:00,
2013-06-28 08:37:00,55.2,54.1,29.56,ESE,112,5.0,13.0,96,0.00,OVC,FEW,0.32,35.0,WeatherDisplay:10.37,2013-06-28 12:37:00,
2013-06-28 08:42:00,55.0,53.9,29.56,ESE,118,6.0,12.0,96,0.01,RA,FEW,0.33,40.0,WeatherDisplay:10.37,2013-06-28 12:42:00,
2013-06-28 08:47:00,54.9,53.8,29.55,ESE,105,6.0,12.0,96,0.00,RA,FEW,0.33,65.0,WeatherDisplay:10.37,2013-06-28 12:47:00,
2013-06-28 08:52:00,54.7,53.6,29.55,ESE,104,6.0,10.0,96,0.00,OVC,FEW,0.33,65.0,WeatherDisplay:10.37,2013-06-28 12:52:00,
2013-06-28 08:57:00,54.7,53.6,29.55,East,100,3.0,10.0,96,0.00,OVC,FEW,0.33,47.0,WeatherDisplay:10.37,2013-06-28 12:57:00,
2013-06-28 09:07:00,54.7,53.9,29.55,ESE,106,6.0,10.0,97,0.00,OVC,FEW,0.33,74.0,WeatherDisplay:10.37,2013-06-28 13:07:00,
2013-06-28 09:17:00,54.9,53.8,29.54,East,98,5.0,12.0,96,0.00,OVC,FEW,0.33,60.0,WeatherDisplay:10.37,2013-06-28 13:17:00,
2013-06-28 09:22:00,55.0,53.8,29.54,ESE,102,3.0,10.0,96,0.00,OVC,FEW,0.33,76.0,WeatherDisplay:10.37,2013-06-28 13:22:00,
2013-06-28 09:27:00,55.2,54.3,29.54,ESE,115,6.0,18.0,97,0.01,RA,FEW,0.34,104.0,WeatherDisplay:10.37,2013-06-28 13:27:00,
2013-06-28 09:32:00,55.3,54.2,29.54,ESE,114,7.0,15.0,96,0.00,RA,FEW,0.34,67.0,WeatherDisplay:10.37,2013-06-28 13:32:00,
2013-06-28 09:37:00,55.4,54.3,29.53,ESE,120,8.0,17.0,96,0.00,OVC,FEW,0.34,97.0,WeatherDisplay:10.37,2013-06-28 13:37:00,
2013-06-28 09:42:00,55.6,54.5,29.53,ESE,120,8.0,13.0,96,0.00,OVC,FEW,0.34,160.0,WeatherDisplay:10.37,2013-06-28 13:42:00,
2013-06-28 09:47:00,55.8,55.0,29.52,ESE,113,9.0,15.0,97,0.00,OVC,FEW,0.34,160.0,WeatherDisplay:10.37,2013-06-28 13:47:00,
2013-06-28 09:52:00,55.9,54.8,29.52,ESE,110,9.0,17.0,96,0.00,OVC,FEW,0.34,135.0,WeatherDisplay:10.37,2013-06-28 13:52:00,
2013-06-28 09:57:00,55.9,54.5,29.52,ESE,107,6.0,18.0,95,0.00,OVC,FEW,0.34,72.0,WeatherDisplay:10.37,2013-06-28 13:57:00,
2013-06-28 10:07:00,55.9,54.5,29.52,ESE,107,5.0,18.0,95,0.00,-RA,FEW,0.34,70.0,WeatherDisplay:10.37,2013-06-28 14:07:00,
2013-06-28 10:17:00,55.8,54.7,29.52,ESE,112,7.0,13.0,96,0.00,-RA,FEW,0.34,76.0,WeatherDisplay:10.37,2013-06-28 14:17:00,
2013-06-28 10:22:00,55.6,54.5,29.52,ESE,109,6.0,12.0,96,0.00,-RA,FEW,0.34,77.0,WeatherDisplay:10.37,2013-06-28 14:22:00,
2013-06-28 10:27:00,55.6,54.5,29.52,ESE,112,8.0,15.0,96,0.00,-RA,FEW,0.34,65.0,WeatherDisplay:10.37,2013-06-28 14:27:00,
2013-06-28 10:32:00,55.6,54.5,29.52,ESE,111,7.0,13.0,96,0.00,-RA,FEW,0.34,65.0,WeatherDisplay:10.37,2013-06-28 14:32:00,
2013-06-28 10:37:00,55.6,54.5,29.51,ESE,112,6.0,13.0,96,0.00,-RA,FEW,0.34,69.0,WeatherDisplay:10.37,2013-06-28 14:37:00,
2013-06-28 10:42:00,55.4,54.0,29.51,ESE,111,6.0,12.0,95,0.01,-RA,FEW,0.35,44.0,WeatherDisplay:10.37,2013-06-28 14:42:00,
2013-06-28 10:47:00,55.3,54.2,29.51,ESE,111,5.0,13.0,96,0.00,-RA,FEW,0.35,40.0,WeatherDisplay:10.37,2013-06-28 14:47:00,
2013-06-28 10:52:00,55.2,54.1,29.51,ESE,111,6.0,9.0,96,0.01,-RA,FEW,0.36,51.0,WeatherDisplay:10.37,2013-06-28 14:52:00,
2013-06-28 10:57:00,55.2,54.1,29.50,ESE,109,9.0,15.0,96,0.01,-RA,FEW,0.37,118.0,WeatherDisplay:10.37,2013-06-28 14:57:00,
2013-06-28 11:07:00,55.3,54.2,29.50,ESE,107,5.0,10.0,96,0.00,OVC,FEW,0.37,90.0,WeatherDisplay:10.37,2013-06-28 15:07:00,
2013-06-28 11:17:00,55.3,54.4,29.49,ESE,112,5.0,10.0,97,0.00,OVC,FEW,0.37,97.0,WeatherDisplay:10.37,2013-06-28 15:17:00,
2013-06-28 11:22:00,55.3,54.4,29.50,ESE,112,2.0,9.0,97,0.01,RA,FEW,0.38,72.0,WeatherDisplay:10.37,2013-06-28 15:22:00,
2013-06-28 11:27:00,55.3,54.5,29.50,ESE,114,5.0,12.0,97,0.00,RA,FEW,0.38,95.0,WeatherDisplay:10.37,2013-06-28 15:27:00,
2013-06-28 11:32:00,55.6,54.8,29.50,ESE,113,6.0,14.0,97,0.00,OVC,FEW,0.38,91.0,WeatherDisplay:10.37,2013-06-28 15:32:00,
2013-06-28 11:37:00,56.0,55.1,29.49,ESE,109,6.0,17.0,97,0.00,OVC,FEW,0.38,162.0,WeatherDisplay:10.37,2013-06-28 15:37:00,
2013-06-28 11:42:00,56.2,55.0,29.49,ESE,111,10.0,18.0,96,0.00,OVC,FEW,0.38,246.0,WeatherDisplay:10.37,2013-06-28 15:42:00,
2013-06-28 11:47:00,56.4,55.3,29.49,ESE,109,8.0,18.0,96,0.00,OVC,FEW,0.38,248.0,WeatherDisplay:10.37,2013-06-28 15:47:00,
2013-06-28 11:52:00,56.6,55.5,29.49,ESE,116,7.0,14.0,96,0.00,OVC,FEW,0.38,390.0,WeatherDisplay:10.37,2013-06-28 15:52:00,
2013-06-28 11:57:00,57.1,56.0,29.49,ESE,122,7.0,20.0,96,0.00,OVC,FEW,0.38,410.0,WeatherDisplay:10.37,2013-06-28 15:57:00,
2013-06-28 12:07:00,57.3,55.8,29.48,SE,132,9.0,21.0,95,0.00,OVC,FEW,0.38,151.0,WeatherDisplay:10.37,2013-06-28 16:07:00,
2013-06-28 12:17:00,57.2,55.5,29.49,ESE,119,9.0,16.0,94,0.00,OVC,FEW,0.38,176.0,WeatherDisplay:10.37,2013-06-28 16:17:00,
2013-06-28 12:22:00,57.4,55.9,29.49,ESE,119,6.0,14.0,95,0.00,OVC,FEW,0.38,388.0,WeatherDisplay:10.37,2013-06-28 16:22:00,
2013-06-28 12:27:00,57.5,55.8,29.49,ESE,114,9.0,20.0,94,0.00,OVC,FEW,0.38,439.0,WeatherDisplay:10.37,2013-06-28 16:27:00,
2013-06-28 12:32:00,58.0,56.3,29.49,ESE,113,10.0,20.0,94,0.00,OVC,FEW,0.38,700.0,WeatherDisplay:10.37,2013-06-28 16:32:00,
2013-06-28 12:37:00,58.0,56.3,29.49,ESE,118,8.0,16.0,94,0.00,OVC,FEW,0.38,250.0,WeatherDisplay:10.37,2013-06-28 16:37:00,
2013-06-28 12:42:00,58.0,56.3,29.49,ESE,122,8.0,16.0,94,0.00,OVC,FEW,0.38,308.0,WeatherDisplay:10.37,2013-06-28 16:42:00,
2013-06-28 12:47:00,58.0,56.0,29.49,ESE,118,8.0,20.0,93,0.00,OVC,FEW,0.38,418.0,WeatherDisplay:10.37,2013-06-28 16:47:00,
2013-06-28 12:52:00,58.2,56.2,29.49,ESE,119,10.0,20.0,93,0.00,OVC,FEW,0.38,478.0,WeatherDisplay:10.37,2013-06-28 16:52:00,
2013-06-28 12:57:00,58.5,56.2,29.48,ESE,123,12.0,23.0,92,0.00,OVC,FEW,0.38,471.0,WeatherDisplay:10.37,2013-06-28 16:57:00,
2013-06-28 13:07:00,58.4,56.1,29.48,SE,139,9.0,21.0,92,0.00,OVC,FEW,0.38,362.0,WeatherDisplay:10.37,2013-06-28 17:07:00,
2013-06-28 13:17:00,58.7,56.1,29.48,ESE,119,12.0,18.0,91,0.00,OVC,FEW,0.38,424.0,WeatherDisplay:10.37,2013-06-28 17:17:00,
2013-06-28 13:22:00,58.8,56.2,29.48,SE,127,9.0,20.0,91,0.00,OVC,FEW,0.38,431.0,WeatherDisplay:10.37,2013-06-28 17:22:00,
2013-06-28 13:32:00,59.2,56.3,29.47,SE,128,7.0,17.0,90,0.00,OVC,FEW,0.38,387.0,WeatherDisplay:10.37,2013-06-28 17:32:00,
2013-06-28 13:37:00,60.1,56.8,29.47,SE,125,14.0,25.0,89,0.00,OVC,FEW,0.38,942.0,WeatherDisplay:10.37,2013-06-28 17:37:00,
2013-06-28 13:42:00,60.1,56.8,29.48,ESE,118,7.0,22.0,89,0.00,OVC,FEW,0.38,564.0,WeatherDisplay:10.37,2013-06-28 17:42:00,
2013-06-28 13:47:00,59.8,56.6,29.48,SE,130,8.0,25.0,89,0.00,OVC,FEW,0.38,323.0,WeatherDisplay:10.37,2013-06-28 17:47:00,
2013-06-28 13:52:00,59.5,56.3,29.48,SE,132,8.0,20.0,89,0.00,OVC,FEW,0.38,188.0,WeatherDisplay:10.37,2013-06-28 17:52:00,
2013-06-28 13:57:00,59.0,55.8,29.48,SE,131,10.0,15.0,89,0.00,OVC,FEW,0.38,243.0,WeatherDisplay:10.37,2013-06-28 17:57:00,
2013-06-28 14:07:00,58.9,56.0,29.48,SE,133,7.0,18.0,90,0.00,BKN,FEW,0.38,192.0,WeatherDisplay:10.37,2013-06-28 18:07:00,
2013-06-28 14:17:00,59.1,56.5,29.48,SE,139,6.0,14.0,91,0.00,BKN,FEW,0.38,158.0,WeatherDisplay:10.37,2013-06-28 18:17:00,
2013-06-28 14:22:00,59.1,56.2,29.48,SE,126,10.0,20.0,90,0.00,BKN,FEW,0.38,104.0,WeatherDisplay:10.37,2013-06-28 18:22:00,
2013-06-28 14:27:00,59.0,56.4,29.48,SE,129,5.0,10.0,91,0.00,BKN,FEW,0.38,95.0,WeatherDisplay:10.37,2013-06-28 18:27:00,
2013-06-28 14:37:00,58.6,56.3,29.49,SE,135,6.0,14.0,92,0.00,BKN,FEW,0.38,258.0,WeatherDisplay:10.37,2013-06-28 18:37:00,
2013-06-28 14:42:00,58.8,56.2,29.48,ESE,115,10.0,16.0,91,0.00,BKN,FEW,0.38,288.0,WeatherDisplay:10.37,2013-06-28 18:42:00,
2013-06-28 14:47:00,59.0,56.1,29.48,ESE,111,6.0,15.0,90,0.00,BKN,FEW,0.38,283.0,WeatherDisplay:10.37,2013-06-28 18:47:00,
2013-06-28 14:52:00,59.3,56.4,29.48,ESE,118,6.0,13.0,90,0.00,BKN,FEW,0.38,410.0,WeatherDisplay:10.37,2013-06-28 18:52:00,
2013-06-28 14:57:00,59.7,56.5,29.48,SE,127,7.0,14.0,89,0.00,BKN,FEW,0.38,336.0,WeatherDisplay:10.37,2013-06-28 18:57:00,
2013-06-28 15:07:00,59.7,56.5,29.48,SE,129,6.0,15.0,89,0.00,OVC,FEW,0.38,199.0,WeatherDisplay:10.37,2013-06-28 19:07:00,
2013-06-28 15:17:00,59.6,56.4,29.48,SE,130,8.0,16.0,89,0.00,OVC,FEW,0.38,153.0,WeatherDisplay:10.37,2013-06-28 19:17:00,
2013-06-28 15:22:00,59.6,56.4,29.48,SE,125,5.0,14.0,89,0.00,OVC,FEW,0.38,325.0,WeatherDisplay:10.37,2013-06-28 19:22:00,
2013-06-28 15:27:00,60.0,56.7,29.47,SE,131,6.0,10.0,89,0.00,OVC,FEW,0.38,686.0,WeatherDisplay:10.37,2013-06-28 19:27:00,
2013-06-28 15:32:00,60.8,57.2,29.47,SE,125,8.0,14.0,88,0.00,OVC,FEW,0.38,886.0,WeatherDisplay:10.37,2013-06-28 19:32:00,
2013-06-28 15:37:00,61.2,57.3,29.47,SE,130,7.0,12.0,87,0.00,OVC,FEW,0.38,420.0,WeatherDisplay:10.37,2013-06-28 19:37:00,
2013-06-28 15:42:00,61.0,57.5,29.48,SE,135,6.0,13.0,88,0.00,OVC,FEW,0.38,322.0,WeatherDisplay:10.37,2013-06-28 19:42:00,
2013-06-28 15:47:00,60.8,57.5,29.47,SE,126,6.0,13.0,89,0.00,OVC,FEW,0.38,403.0,WeatherDisplay:10.37,2013-06-28 19:47:00,
2013-06-28 15:52:00,60.8,57.2,29.47,SE,131,5.0,15.0,88,0.00,OVC,FEW,0.38,422.0,WeatherDisplay:10.37,2013-06-28 19:52:00,
2013-06-28 15:57:00,60.6,57.3,29.48,SE,136,7.0,16.0,89,0.00,OVC,FEW,0.38,364.0,WeatherDisplay:10.37,2013-06-28 19:57:00,
2013-06-28 16:07:00,60.4,57.1,29.47,SE,133,10.0,21.0,89,0.00,OVC,FEW,0.38,499.0,WeatherDisplay:10.37,2013-06-28 20:07:00,
2013-06-28 16:17:00,60.4,57.1,29.47,SE,132,6.0,16.0,89,0.00,OVC,FEW,0.38,301.0,WeatherDisplay:10.37,2013-06-28 20:17:00,
2013-06-28 16:22:00,60.3,57.4,29.47,SE,129,7.0,12.0,90,0.00,BKN,FEW,0.38,288.0,WeatherDisplay:10.37,2013-06-28 20:22:00,
2013-06-28 16:27:00,60.2,57.3,29.47,SE,130,6.0,13.0,90,0.00,BKN,FEW,0.38,276.0,WeatherDisplay:10.37,2013-06-28 20:27:00,
2013-06-28 16:32:00,60.0,57.0,29.47,SE,124,8.0,14.0,90,0.00,BKN,FEW,0.38,220.0,WeatherDisplay:10.37,2013-06-28 20:32:00,
2013-06-28 16:37:00,59.8,57.2,29.47,ESE,120,8.0,13.0,91,0.00,BKN,FEW,0.38,236.0,WeatherDisplay:10.37,2013-06-28 20:37:00,
2013-06-28 16:42:00,59.9,57.3,29.47,SE,127,7.0,15.0,91,0.00,BKN,FEW,0.38,262.0,WeatherDisplay:10.37,2013-06-28 20:42:00,
2013-06-28 16:47:00,60.0,57.4,29.47,SE,133,5.0,15.0,91,0.00,BKN,FEW,0.38,338.0,WeatherDisplay:10.37,2013-06-28 20:47:00,
2013-06-28 16:52:00,60.3,57.7,29.46,SE,129,7.0,12.0,91,0.00,BKN,FEW,0.38,378.0,WeatherDisplay:10.37,2013-06-28 20:52:00,
2013-06-28 16:57:00,60.5,57.6,29.47,SE,125,7.0,12.0,90,0.00,BKN,FEW,0.38,499.0,WeatherDisplay:10.37,2013-06-28 20:57:00,
2013-06-28 17:07:00,60.8,57.8,29.47,SE,130,6.0,15.0,90,0.00,BKN,FEW,0.38,422.0,WeatherDisplay:10.37,2013-06-28 21:07:00,
2013-06-28 17:17:00,61.2,58.2,29.47,SE,144,6.0,13.0,90,0.00,BKN,FEW,0.38,533.0,WeatherDisplay:10.37,2013-06-28 21:17:00,
2013-06-28 17:22:00,61.5,58.5,29.47,SE,144,5.0,8.0,90,0.00,BKN,FEW,0.38,459.0,WeatherDisplay:10.37,2013-06-28 21:22:00,
2013-06-28 17:27:00,61.8,58.5,29.47,SE,145,7.0,14.0,89,0.00,BKN,FEW,0.38,538.0,WeatherDisplay:10.37,2013-06-28 21:27:00,
2013-06-28 17:32:00,61.7,58.4,29.47,SSE,148,5.0,12.0,89,0.00,BKN,FEW,0.38,362.0,WeatherDisplay:10.37,2013-06-28 21:32:00,
2013-06-28 17:37:00,61.7,58.4,29.47,SE,137,7.0,12.0,89,0.00,BKN,FEW,0.38,422.0,WeatherDisplay:10.37,2013-06-28 21:37:00,
2013-06-28 17:42:00,61.6,58.3,29.47,SE,130,6.0,12.0,89,0.00,BKN,FEW,0.38,385.0,WeatherDisplay:10.37,2013-06-28 21:42:00,
2013-06-28 17:47:00,61.7,58.5,29.46,SE,136,7.0,12.0,89,0.00,BKN,FEW,0.38,538.0,WeatherDisplay:10.37,2013-06-28 21:47:00,
2013-06-28 17:52:00,61.7,58.4,29.46,SE,144,9.0,14.0,89,0.00,BKN,FEW,0.38,366.0,WeatherDisplay:10.37,2013-06-28 21:52:00,
2013-06-28 17:57:00,61.4,58.5,29.46,SE,146,6.0,15.0,90,0.00,BKN,FEW,0.38,232.0,WeatherDisplay:10.37,2013-06-28 21:57:00,
2013-06-28 18:07:00,61.2,58.2,29.45,SE,128,5.0,13.0,90,0.00,CLR,FEW,0.38,195.0,WeatherDisplay:10.37,2013-06-28 22:07:00,
2013-06-28 18:17:00,61.4,58.4,29.45,SE,135,5.0,13.0,90,0.00,CLR,FEW,0.38,149.0,WeatherDisplay:10.37,2013-06-28 22:17:00,
2013-06-28 18:22:00,61.4,58.4,29.46,SE,126,6.0,12.0,90,0.00,CLR,FEW,0.38,149.0,WeatherDisplay:10.37,2013-06-28 22:22:00,
2013-06-28 18:27:00,61.6,58.7,29.46,SE,133,3.0,12.0,90,0.00,CLR,FEW,0.38,137.0,WeatherDisplay:10.37,2013-06-28 22:27:00,
2013-06-28 18:32:00,61.8,58.5,29.47,SE,135,7.0,12.0,89,0.00,CLR,FEW,0.38,125.0,WeatherDisplay:10.37,2013-06-28 22:32:00,
2013-06-28 18:37:00,61.8,58.8,29.47,SE,133,5.0,12.0,90,0.00,CLR,FEW,0.38,118.0,WeatherDisplay:10.37,2013-06-28 22:37:00,
2013-06-28 18:42:00,61.6,58.6,29.47,ESE,120,6.0,12.0,90,0.00,CLR,FEW,0.38,125.0,WeatherDisplay:10.37,2013-06-28 22:42:00,
2013-06-28 18:47:00,61.3,58.4,29.46,ESE,120,6.0,13.0,90,0.00,CLR,FEW,0.38,113.0,WeatherDisplay:10.37,2013-06-28 22:47:00,
2013-06-28 18:52:00,61.1,58.5,29.46,SE,137,6.0,13.0,91,0.00,CLR,FEW,0.38,102.0,WeatherDisplay:10.37,2013-06-28 22:52:00,
2013-06-28 18:57:00,61.0,58.4,29.46,SE,131,5.0,15.0,91,0.00,CLR,FEW,0.38,81.0,WeatherDisplay:10.37,2013-06-28 22:57:00,
2013-06-28 19:07:00,60.9,58.6,29.47,ESE,113,3.0,16.0,92,0.00,BKN,FEW,0.38,67.0,WeatherDisplay:10.37,2013-06-28 23:07:00,
2013-06-28 19:17:00,60.9,58.6,29.47,ESE,122,5.0,12.0,92,0.00,BKN,FEW,0.38,72.0,WeatherDisplay:10.37,2013-06-28 23:17:00,
2013-06-28 19:22:00,60.9,58.3,29.47,SE,127,6.0,13.0,91,0.00,BKN,FEW,0.38,69.0,WeatherDisplay:10.37,2013-06-28 23:22:00,
2013-06-28 19:27:00,60.9,58.6,29.47,SE,131,5.0,15.0,92,0.00,BKN,FEW,0.38,54.0,WeatherDisplay:10.37,2013-06-28 23:27:00,
2013-06-28 19:32:00,60.8,58.5,29.46,ESE,115,7.0,16.0,92,0.00,BKN,FEW,0.38,56.0,WeatherDisplay:10.37,2013-06-28 23:32:00,
2013-06-28 19:37:00,60.8,58.5,29.46,SE,128,3.0,9.0,92,0.00,BKN,FEW,0.38,53.0,WeatherDisplay:10.37,2013-06-28 23:37:00,
2013-06-28 19:42:00,60.8,58.5,29.47,SE,137,5.0,12.0,92,0.00,BKN,FEW,0.38,40.0,WeatherDisplay:10.37,2013-06-28 23:42:00,
2013-06-28 19:47:00,60.8,58.5,29.47,SE,136,1.0,9.0,92,0.00,BKN,FEW,0.38,32.0,WeatherDisplay:10.37,2013-06-28 23:47:00,
2013-06-28 19:52:00,60.8,58.5,29.48,SE,131,6.0,12.0,92,0.00,BKN,FEW,0.38,25.0,WeatherDisplay:10.37,2013-06-28 23:52:00,
2013-06-28 19:57:00,60.7,58.4,29.47,ESE,109,5.0,13.0,92,0.00,BKN,FEW,0.38,21.0,WeatherDisplay:10.37,2013-06-28 23:57:00,
2013-06-28 20:07:00,60.5,58.2,29.49,ESE,116,6.0,13.0,92,0.00,-RA,FEW,0.38,11.0,WeatherDisplay:10.37,2013-06-29 00:07:00,
2013-06-28 20:17:00,60.5,58.5,29.48,ESE,108,5.0,10.0,93,0.00,-RA,FEW,0.38,9.0,WeatherDisplay:10.37,2013-06-29 00:17:00,
2013-06-28 20:22:00,60.5,58.5,29.48,ESE,106,3.0,12.0,93,0.00,-RA,FEW,0.38,5.0,WeatherDisplay:10.37,2013-06-29 00:22:00,
2013-06-28 20:27:00,60.4,58.4,29.48,ESE,103,6.0,10.0,93,0.00,-RA,FEW,0.38,0.0,WeatherDisplay:10.37,2013-06-29 00:27:00,
2013-06-28 20:32:00,60.3,58.3,29.48,ESE,114,5.0,7.0,93,0.00,-RA,FEW,0.38,0.0,WeatherDisplay:10.37,2013-06-29 00:32:00,
2013-06-28 20:37:00,60.2,58.2,29.48,SE,135,2.0,12.0,93,0.00,-RA,FEW,0.38,0.0,WeatherDisplay:10.37,2013-06-29 00:37:00,
2013-06-28 20:42:00,60.1,58.1,29.48,SE,127,6.0,12.0,93,0.00,-RA,FEW,0.38,0.0,WeatherDisplay:10.37,2013-06-29 00:42:00,
2013-06-28 20:47:00,60.1,58.1,29.49,ESE,117,5.0,12.0,93,0.00,-RA,FEW,0.38,0.0,WeatherDisplay:10.37,2013-06-29 00:47:00,
2013-06-28 20:52:00,60.1,58.4,29.49,SE,140,5.0,12.0,94,0.00,-RA,FEW,0.38,0.0,WeatherDisplay:10.37,2013-06-29 00:52:00,
2013-06-28 20:57:00,60.1,58.4,29.48,SE,131,6.0,12.0,94,0.00,-RA,FEW,0.38,0.0,WeatherDisplay:10.37,2013-06-29 00:57:00,
2013-06-28 21:07:00,60.1,58.4,29.49,SE,132,5.0,12.0,94,0.00,SCT,FEW,0.38,0.0,WeatherDisplay:10.37,2013-06-29 01:07:00,
2013-06-28 21:17:00,60.1,58.4,29.49,ESE,120,6.0,10.0,94,0.00,SCT,FEW,0.38,0.0,WeatherDisplay:10.37,2013-06-29 01:17:00,
2013-06-28 21:22:00,60.0,58.3,29.49,ESE,109,8.0,14.0,94,0.00,SCT,FEW,0.38,0.0,WeatherDisplay:10.37,2013-06-29 01:22:00,
2013-06-28 21:27:00,60.0,58.3,29.49,ESE,116,5.0,12.0,94,0.00,SCT,FEW,0.38,0.0,WeatherDisplay:10.37,2013-06-29 01:27:00,
2013-06-28 21:37:00,59.7,58.0,29.49,ESE,117,7.0,12.0,94,0.00,SCT,FEW,0.38,0.0,WeatherDisplay:10.37,2013-06-29 01:37:00,
2013-06-28 21:42:00,59.6,57.9,29.50,ESE,123,7.0,12.0,94,0.00,SCT,FEW,0.38,0.0,WeatherDisplay:10.37,2013-06-29 01:42:00,
2013-06-28 21:47:00,59.6,57.9,29.50,ESE,114,6.0,12.0,94,0.00,SCT,FEW,0.38,0.0,WeatherDisplay:10.37,2013-06-29 01:47:00,
2013-06-28 21:52:00,59.6,57.9,29.50,ESE,113,5.0,9.0,94,0.00,SCT,FEW,0.38,0.0,WeatherDisplay:10.37,2013-06-29 01:52:00,
2013-06-28 21:57:00,59.6,57.9,29.49,ESE,108,5.0,10.0,94,0.00,SCT,FEW,0.38,0.0,WeatherDisplay:10.37,2013-06-29 01:57:00,
2013-06-28 22:07:00,59.4,57.7,29.50,ESE,113,2.0,10.0,94,0.00,FEW,FEW,0.38,0.0,WeatherDisplay:10.37,2013-06-29 02:07:00,
2013-06-28 22:17:00,59.3,57.9,29.49,ESE,114,5.0,12.0,95,0.00,FEW,FEW,0.38,0.0,WeatherDisplay:10.37,2013-06-29 02:17:00,
2013-06-28 22:22:00,59.3,57.9,29.49,ESE,117,6.0,10.0,95,0.00,FEW,FEW,0.38,0.0,WeatherDisplay:10.37,2013-06-29 02:22:00,
2013-06-28 22:27:00,59.3,57.9,29.49,ESE,123,3.0,9.0,95,0.00,FEW,FEW,0.38,0.0,WeatherDisplay:10.37,2013-06-29 02:27:00,
2013-06-28 22:32:00,59.4,58.0,29.49,SE,136,3.0,9.0,95,0.00,FEW,FEW,0.38,0.0,WeatherDisplay:10.37,2013-06-29 02:32:00,
2013-06-28 22:37:00,59.4,58.0,29.49,SE,138,3.0,12.0,95,0.00,FEW,FEW,0.38,0.0,WeatherDisplay:10.37,2013-06-29 02:37:00,
2013-06-28 22:42:00,59.4,58.0,29.49,SE,127,6.0,10.0,95,0.00,FEW,FEW,0.38,0.0,WeatherDisplay:10.37,2013-06-29 02:42:00,
2013-06-28 22:47:00,59.4,58.0,29.49,ESE,109,3.0,10.0,95,0.00,FEW,FEW,0.38,0.0,WeatherDisplay:10.37,2013-06-29 02:47:00,
2013-06-28 22:52:00,59.3,57.9,29.49,ESE,113,5.0,7.0,95,0.00,FEW,FEW,0.38,0.0,WeatherDisplay:10.37,2013-06-29 02:52:00,
2013-06-28 22:57:00,59.3,57.9,29.49,ESE,119,3.0,6.0,95,0.00,FEW,FEW,0.38,0.0,WeatherDisplay:10.37,2013-06-29 02:57:00,
2013-06-28 23:07:00,59.2,57.8,29.49,ESE,117,3.0,7.0,95,0.00,CLR,FEW,0.38,0.0,WeatherDisplay:10.37,2013-06-29 03:07:00,
2013-06-28 23:17:00,59.2,57.8,29.49,ESE,111,6.0,12.0,95,0.00,CLR,FEW,0.38,0.0,WeatherDisplay:10.37,2013-06-29 03:17:00,
2013-06-28 23:22:00,59.3,57.9,29.49,ESE,109,1.0,9.0,95,0.00,CLR,FEW,0.38,0.0,WeatherDisplay:10.37,2013-06-29 03:22:00,
2013-06-28 23:27:00,59.3,58.2,29.49,ESE,116,1.0,4.0,96,0.00,CLR,FEW,0.38,0.0,WeatherDisplay:10.37,2013-06-29 03:27:00,
2013-06-28 23:32:00,59.4,58.3,29.49,SE,135,1.0,7.0,96,0.00,CLR,FEW,0.38,0.0,WeatherDisplay:10.37,2013-06-29 03:32:00,
2013-06-28 23:37:00,59.4,58.3,29.49,SE,139,0.0,2.0,96,0.00,CLR,FEW,0.38,0.0,WeatherDisplay:10.37,2013-06-29 03:37:00,
2013-06-28 23:42:00,59.4,58.3,29.49,ESE,113,5.0,6.0,96,0.00,CLR,FEW,0.38,0.0,WeatherDisplay:10.37,2013-06-29 03:42:00,
2013-06-28 23:47:00,59.4,58.3,29.49,ESE,120,3.0,10.0,96,0.00,CLR,FEW,0.38,0.0,WeatherDisplay:10.37,2013-06-29 03:47:00,
2013-06-28 23:52:00,59.4,58.3,29.49,ESE,115,1.0,6.0,96,0.00,CLR,FEW,0.38,0.0,WeatherDisplay:10.37,2013-06-29 03:52:00,
2013-06-28 23:57:00,59.4,58.3,29.49,ESE,113,0.0,5.0,96,0.00,CLR,FEW,0.38,0.0,WeatherDisplay:10.37,2013-06-29 03:57:00,